sensor_id;sensor_type;location;lat;lon;timestamp;P1;durP1;ratioP1;P2;durP2;ratioP2
10452;SDS011;5274;51.992;8.518;2023-03-23T00:01:05;7.10;;;6.55;;
10452;SDS011;5274;51.992;8.518;2023-03-23T00:03:34;8.18;;;6.75;;
10452;SDS011;5274;51.992;8.518;2023-03-23T00:06:00;6.55;;;5.95;;
10452;SDS011;5274;51.992;8.518;2023-03-23T00:08:31;6.20;;;5.70;;
10452;SDS011;5274;51.992;8.518;2023-03-23T00:10:58;5.68;;;5.18;;
10452;SDS011;5274;51.992;8.518;2023-03-23T00:13:26;5.78;;;4.63;;
10452;SDS011;5274;51.992;8.518;2023-03-23T00:15:52;5.45;;;5.00;;
10452;SDS011;5274;51.992;8.518;2023-03-23T00:18:19;5.65;;;5.15;;
10452;SDS011;5274;51.992;8.518;2023-03-23T00:20:48;7.55;;;5.57;;
10452;SDS011;5274;51.992;8.518;2023-03-23T00:23:15;6.20;;;5.00;;
10452;SDS011;5274;51.992;8.518;2023-03-23T00:25:44;5.28;;;4.72;;
10452;SDS011;5274;51.992;8.518;2023-03-23T00:28:10;5.93;;;5.22;;
10452;SDS011;5274;51.992;8.518;2023-03-23T00:30:37;9.88;;;5.50;;
10452;SDS011;5274;51.992;8.518;2023-03-23T00:33:03;7.38;;;5.30;;
10452;SDS011;5274;51.992;8.518;2023-03-23T00:35:29;8.98;;;5.72;;
10452;SDS011;5274;51.992;8.518;2023-03-23T00:37:56;6.32;;;5.03;;
10452;SDS011;5274;51.992;8.518;2023-03-23T00:40:23;7.72;;;5.25;;
10452;SDS011;5274;51.992;8.518;2023-03-23T00:42:49;6.82;;;5.40;;
10452;SDS011;5274;51.992;8.518;2023-03-23T00:45:15;6.57;;;5.38;;
10452;SDS011;5274;51.992;8.518;2023-03-23T00:47:41;6.60;;;5.65;;
10452;SDS011;5274;51.992;8.518;2023-03-23T00:50:11;7.38;;;5.55;;
10452;SDS011;5274;51.992;8.518;2023-03-23T00:52:38;8.32;;;5.57;;
10452;SDS011;5274;51.992;8.518;2023-03-23T00:55:04;7.53;;;5.50;;
10452;SDS011;5274;51.992;8.518;2023-03-23T00:57:30;11.23;;;6.68;;
10452;SDS011;5274;51.992;8.518;2023-03-23T00:59:56;10.20;;;6.53;;
10452;SDS011;5274;51.992;8.518;2023-03-23T01:02:23;8.85;;;5.72;;
10452;SDS011;5274;51.992;8.518;2023-03-23T01:04:52;7.32;;;5.68;;
10452;SDS011;5274;51.992;8.518;2023-03-23T01:07:19;6.85;;;5.88;;
10452;SDS011;5274;51.992;8.518;2023-03-23T01:09:46;7.78;;;6.10;;
10452;SDS011;5274;51.992;8.518;2023-03-23T01:12:13;9.45;;;6.32;;
10452;SDS011;5274;51.992;8.518;2023-03-23T01:14:40;7.90;;;7.10;;
10452;SDS011;5274;51.992;8.518;2023-03-23T01:17:05;7.72;;;6.30;;
10452;SDS011;5274;51.992;8.518;2023-03-23T01:19:31;7.78;;;6.68;;
10452;SDS011;5274;51.992;8.518;2023-03-23T01:21:57;11.60;;;6.80;;
10452;SDS011;5274;51.992;8.518;2023-03-23T01:24:23;7.88;;;7.00;;
10452;SDS011;5274;51.992;8.518;2023-03-23T01:26:49;7.97;;;6.05;;
10452;SDS011;5274;51.992;8.518;2023-03-23T01:29:15;6.65;;;6.00;;
10452;SDS011;5274;51.992;8.518;2023-03-23T01:31:41;6.60;;;5.00;;
10452;SDS011;5274;51.992;8.518;2023-03-23T01:34:08;5.80;;;5.30;;
10452;SDS011;5274;51.992;8.518;2023-03-23T01:36:35;6.40;;;5.40;;
10452;SDS011;5274;51.992;8.518;2023-03-23T01:39:02;5.30;;;4.80;;
10452;SDS011;5274;51.992;8.518;2023-03-23T01:41:29;7.25;;;5.55;;
10452;SDS011;5274;51.992;8.518;2023-03-23T01:44:06;6.13;;;5.63;;
10452;SDS011;5274;51.992;8.518;2023-03-23T01:46:33;6.72;;;5.63;;
10452;SDS011;5274;51.992;8.518;2023-03-23T01:49:01;5.90;;;5.38;;
10452;SDS011;5274;51.992;8.518;2023-03-23T01:51:31;6.38;;;5.35;;
10452;SDS011;5274;51.992;8.518;2023-03-23T01:53:59;6.25;;;5.65;;
10452;SDS011;5274;51.992;8.518;2023-03-23T01:56:29;6.72;;;5.28;;
10452;SDS011;5274;51.992;8.518;2023-03-23T01:58:58;5.57;;;5.18;;
10452;SDS011;5274;51.992;8.518;2023-03-23T02:01:24;5.30;;;4.90;;
10452;SDS011;5274;51.992;8.518;2023-03-23T02:03:51;6.35;;;5.18;;
10452;SDS011;5274;51.992;8.518;2023-03-23T02:06:17;6.20;;;5.50;;
10452;SDS011;5274;51.992;8.518;2023-03-23T02:08:43;4.88;;;4.47;;
10452;SDS011;5274;51.992;8.518;2023-03-23T02:11:19;5.88;;;5.07;;
10452;SDS011;5274;51.992;8.518;2023-03-23T02:13:46;5.80;;;5.28;;
10452;SDS011;5274;51.992;8.518;2023-03-23T02:18:53;6.70;;;5.28;;
10452;SDS011;5274;51.992;8.518;2023-03-23T02:21:42;5.43;;;5.03;;
10452;SDS011;5274;51.992;8.518;2023-03-23T02:27:17;5.63;;;5.13;;
10452;SDS011;5274;51.992;8.518;2023-03-23T02:32:29;5.90;;;5.32;;
10452;SDS011;5274;51.992;8.518;2023-03-23T02:34:59;5.47;;;4.93;;
10452;SDS011;5274;51.992;8.518;2023-03-23T02:38:08;5.85;;;5.35;;
10452;SDS011;5274;51.992;8.518;2023-03-23T02:40:23;5.43;;;5.00;;
10452;SDS011;5274;51.992;8.518;2023-03-23T02:42:51;6.15;;;5.30;;
10452;SDS011;5274;51.992;8.518;2023-03-23T02:45:19;6.25;;;5.75;;
10452;SDS011;5274;51.992;8.518;2023-03-23T02:47:46;7.95;;;5.90;;
10452;SDS011;5274;51.992;8.518;2023-03-23T02:50:14;7.20;;;6.60;;
10452;SDS011;5274;51.992;8.518;2023-03-23T02:52:41;6.85;;;6.15;;
10452;SDS011;5274;51.992;8.518;2023-03-23T02:55:08;7.25;;;6.07;;
10452;SDS011;5274;51.992;8.518;2023-03-23T02:57:36;8.60;;;6.00;;
10452;SDS011;5274;51.992;8.518;2023-03-23T03:00:04;6.22;;;5.65;;
10452;SDS011;5274;51.992;8.518;2023-03-23T03:02:32;7.03;;;6.43;;
10452;SDS011;5274;51.992;8.518;2023-03-23T03:05:13;7.32;;;6.82;;
10452;SDS011;5274;51.992;8.518;2023-03-23T03:07:46;6.07;;;5.65;;
10452;SDS011;5274;51.992;8.518;2023-03-23T03:12:49;5.72;;;5.32;;
10452;SDS011;5274;51.992;8.518;2023-03-23T03:20:48;6.20;;;5.80;;
10452;SDS011;5274;51.992;8.518;2023-03-23T03:23:16;6.75;;;6.25;;
10452;SDS011;5274;51.992;8.518;2023-03-23T03:25:42;6.50;;;5.78;;
10452;SDS011;5274;51.992;8.518;2023-03-23T03:28:13;8.68;;;6.05;;
10452;SDS011;5274;51.992;8.518;2023-03-23T03:30:39;6.63;;;5.65;;
10452;SDS011;5274;51.992;8.518;2023-03-23T03:33:08;6.18;;;5.85;;
10452;SDS011;5274;51.992;8.518;2023-03-23T03:35:36;6.50;;;5.90;;
10452;SDS011;5274;51.992;8.518;2023-03-23T03:38:06;6.25;;;5.72;;
10452;SDS011;5274;51.992;8.518;2023-03-23T03:40:33;5.82;;;5.40;;
10452;SDS011;5274;51.992;8.518;2023-03-23T03:42:59;5.78;;;5.28;;
10452;SDS011;5274;51.992;8.518;2023-03-23T03:45:25;5.40;;;5.00;;
10452;SDS011;5274;51.992;8.518;2023-03-23T03:47:51;5.95;;;5.22;;
10452;SDS011;5274;51.992;8.518;2023-03-23T03:50:17;5.68;;;5.28;;
10452;SDS011;5274;51.992;8.518;2023-03-23T03:52:43;6.18;;;5.60;;
10452;SDS011;5274;51.992;8.518;2023-03-23T03:55:09;5.18;;;4.78;;
10452;SDS011;5274;51.992;8.518;2023-03-23T03:57:36;6.20;;;5.60;;
10452;SDS011;5274;51.992;8.518;2023-03-23T04:00:02;5.53;;;5.07;;
10452;SDS011;5274;51.992;8.518;2023-03-23T04:02:38;5.50;;;5.10;;
10452;SDS011;5274;51.992;8.518;2023-03-23T04:05:05;5.60;;;5.18;;
10452;SDS011;5274;51.992;8.518;2023-03-23T04:07:31;5.45;;;5.00;;
10452;SDS011;5274;51.992;8.518;2023-03-23T04:09:57;5.18;;;4.78;;
10452;SDS011;5274;51.992;8.518;2023-03-23T04:12:23;6.20;;;4.38;;
10452;SDS011;5274;51.992;8.518;2023-03-23T04:14:49;5.20;;;4.70;;
10452;SDS011;5274;51.992;8.518;2023-03-23T04:17:15;4.88;;;4.47;;
10452;SDS011;5274;51.992;8.518;2023-03-23T04:19:42;4.88;;;4.47;;
10452;SDS011;5274;51.992;8.518;2023-03-23T04:22:09;4.80;;;4.50;;
10452;SDS011;5274;51.992;8.518;2023-03-23T04:24:35;4.80;;;4.40;;
10452;SDS011;5274;51.992;8.518;2023-03-23T04:27:01;5.20;;;4.75;;
10452;SDS011;5274;51.992;8.518;2023-03-23T04:29:28;4.85;;;4.50;;
10452;SDS011;5274;51.992;8.518;2023-03-23T04:31:55;5.70;;;5.18;;
10452;SDS011;5274;51.992;8.518;2023-03-23T04:34:21;5.13;;;4.82;;
10452;SDS011;5274;51.992;8.518;2023-03-23T04:36:47;4.32;;;4.00;;
10452;SDS011;5274;51.992;8.518;2023-03-23T04:39:13;4.68;;;4.28;;
10452;SDS011;5274;51.992;8.518;2023-03-23T04:41:40;4.55;;;4.15;;
10452;SDS011;5274;51.992;8.518;2023-03-23T04:44:07;4.53;;;4.10;;
10452;SDS011;5274;51.992;8.518;2023-03-23T04:46:33;5.00;;;4.60;;
10452;SDS011;5274;51.992;8.518;2023-03-23T04:48:59;5.93;;;4.70;;
10452;SDS011;5274;51.992;8.518;2023-03-23T04:51:28;5.38;;;4.88;;
10452;SDS011;5274;51.992;8.518;2023-03-23T04:53:54;4.03;;;3.83;;
10452;SDS011;5274;51.992;8.518;2023-03-23T04:56:21;4.32;;;4.03;;
10452;SDS011;5274;51.992;8.518;2023-03-23T04:58:47;5.18;;;4.78;;
10452;SDS011;5274;51.992;8.518;2023-03-23T05:01:13;5.32;;;5.00;;
10452;SDS011;5274;51.992;8.518;2023-03-23T05:03:39;4.60;;;4.30;;
10452;SDS011;5274;51.992;8.518;2023-03-23T05:06:05;11.43;;;10.77;;
10452;SDS011;5274;51.992;8.518;2023-03-23T05:08:31;11.10;;;10.50;;
10452;SDS011;5274;51.992;8.518;2023-03-23T05:10:59;12.50;;;11.90;;
10452;SDS011;5274;51.992;8.518;2023-03-23T05:13:26;11.00;;;10.50;;
10452;SDS011;5274;51.992;8.518;2023-03-23T05:15:52;11.50;;;10.90;;
10452;SDS011;5274;51.992;8.518;2023-03-23T05:18:18;11.65;;;11.05;;
10452;SDS011;5274;51.992;8.518;2023-03-23T05:20:45;12.27;;;11.68;;
10452;SDS011;5274;51.992;8.518;2023-03-23T05:23:11;12.30;;;11.70;;
10452;SDS011;5274;51.992;8.518;2023-03-23T05:25:37;11.52;;;10.93;;
10452;SDS011;5274;51.992;8.518;2023-03-23T05:28:07;11.90;;;11.20;;
10452;SDS011;5274;51.992;8.518;2023-03-23T05:30:34;12.70;;;12.10;;
10452;SDS011;5274;51.992;8.518;2023-03-23T05:33:00;14.25;;;13.55;;
10452;SDS011;5274;51.992;8.518;2023-03-23T05:35:26;11.38;;;10.68;;
10452;SDS011;5274;51.992;8.518;2023-03-23T05:37:52;13.20;;;12.55;;
10452;SDS011;5274;51.992;8.518;2023-03-23T05:40:20;11.77;;;11.27;;
10452;SDS011;5274;51.992;8.518;2023-03-23T05:42:47;12.20;;;11.60;;
10452;SDS011;5274;51.992;8.518;2023-03-23T05:45:13;11.90;;;11.27;;
10452;SDS011;5274;51.992;8.518;2023-03-23T05:47:41;12.90;;;12.20;;
10452;SDS011;5274;51.992;8.518;2023-03-23T05:50:07;12.00;;;11.40;;
10452;SDS011;5274;51.992;8.518;2023-03-23T05:52:37;11.95;;;11.18;;
10452;SDS011;5274;51.992;8.518;2023-03-23T05:55:03;11.27;;;10.77;;
10452;SDS011;5274;51.992;8.518;2023-03-23T05:57:30;11.32;;;10.82;;
10452;SDS011;5274;51.992;8.518;2023-03-23T05:59:56;11.35;;;10.50;;
10452;SDS011;5274;51.992;8.518;2023-03-23T06:02:22;12.38;;;11.68;;
10452;SDS011;5274;51.992;8.518;2023-03-23T06:04:49;11.80;;;11.15;;
10452;SDS011;5274;51.992;8.518;2023-03-23T06:07:15;11.95;;;11.25;;
10452;SDS011;5274;51.992;8.518;2023-03-23T06:09:41;10.85;;;10.35;;
10452;SDS011;5274;51.992;8.518;2023-03-23T06:12:07;10.75;;;10.15;;
10452;SDS011;5274;51.992;8.518;2023-03-23T06:14:34;9.02;;;8.48;;
10452;SDS011;5274;51.992;8.518;2023-03-23T06:17:00;11.48;;;10.88;;
10452;SDS011;5274;51.992;8.518;2023-03-23T06:19:26;11.48;;;10.88;;
10452;SDS011;5274;51.992;8.518;2023-03-23T06:21:53;11.18;;;10.68;;
10452;SDS011;5274;51.992;8.518;2023-03-23T06:24:20;9.00;;;8.50;;
10452;SDS011;5274;51.992;8.518;2023-03-23T06:26:46;9.75;;;9.25;;
10452;SDS011;5274;51.992;8.518;2023-03-23T06:29:13;10.02;;;9.07;;
10452;SDS011;5274;51.992;8.518;2023-03-23T06:31:40;10.85;;;10.35;;
10452;SDS011;5274;51.992;8.518;2023-03-23T06:34:07;11.38;;;10.70;;
10452;SDS011;5274;51.992;8.518;2023-03-23T06:36:33;11.63;;;11.02;;
10452;SDS011;5274;51.992;8.518;2023-03-23T06:38:59;11.88;;;11.27;;
10452;SDS011;5274;51.992;8.518;2023-03-23T06:41:26;13.02;;;12.43;;
10452;SDS011;5274;51.992;8.518;2023-03-23T06:43:52;14.35;;;13.65;;
10452;SDS011;5274;51.992;8.518;2023-03-23T06:46:18;14.80;;;13.70;;
10452;SDS011;5274;51.992;8.518;2023-03-23T06:48:44;15.23;;;14.18;;
10452;SDS011;5274;51.992;8.518;2023-03-23T06:51:10;12.98;;;12.32;;
10452;SDS011;5274;51.992;8.518;2023-03-23T06:53:36;11.25;;;10.65;;
10452;SDS011;5274;51.992;8.518;2023-03-23T06:56:02;11.88;;;11.27;;
10452;SDS011;5274;51.992;8.518;2023-03-23T06:58:28;12.68;;;11.98;;
10452;SDS011;5274;51.992;8.518;2023-03-23T07:00:55;12.68;;;11.98;;
10452;SDS011;5274;51.992;8.518;2023-03-23T07:03:24;13.10;;;12.25;;
10452;SDS011;5274;51.992;8.518;2023-03-23T07:05:51;15.00;;;14.07;;
10452;SDS011;5274;51.992;8.518;2023-03-23T07:08:17;14.23;;;13.52;;
10452;SDS011;5274;51.992;8.518;2023-03-23T07:10:43;12.85;;;12.25;;
10452;SDS011;5274;51.992;8.518;2023-03-23T07:13:09;14.13;;;13.43;;
10452;SDS011;5274;51.992;8.518;2023-03-23T07:15:35;13.95;;;13.30;;
10452;SDS011;5274;51.992;8.518;2023-03-23T07:18:01;15.25;;;14.20;;
10452;SDS011;5274;51.992;8.518;2023-03-23T07:20:27;16.10;;;15.30;;
10452;SDS011;5274;51.992;8.518;2023-03-23T07:22:54;15.50;;;14.63;;
10452;SDS011;5274;51.992;8.518;2023-03-23T07:25:20;14.18;;;13.48;;
10452;SDS011;5274;51.992;8.518;2023-03-23T07:27:46;16.58;;;15.68;;
10452;SDS011;5274;51.992;8.518;2023-03-23T07:30:12;15.13;;;14.25;;
10452;SDS011;5274;51.992;8.518;2023-03-23T07:32:39;16.65;;;15.68;;
10452;SDS011;5274;51.992;8.518;2023-03-23T07:35:06;17.15;;;16.17;;
10452;SDS011;5274;51.992;8.518;2023-03-23T07:37:32;17.90;;;17.00;;
10452;SDS011;5274;51.992;8.518;2023-03-23T07:39:58;18.10;;;17.10;;
10452;SDS011;5274;51.992;8.518;2023-03-23T07:42:24;18.80;;;17.80;;
10452;SDS011;5274;51.992;8.518;2023-03-23T07:44:50;18.42;;;17.48;;
10452;SDS011;5274;51.992;8.518;2023-03-23T07:47:16;18.55;;;17.55;;
10452;SDS011;5274;51.992;8.518;2023-03-23T07:49:42;16.15;;;15.35;;
10452;SDS011;5274;51.992;8.518;2023-03-23T07:52:08;16.77;;;15.98;;
10452;SDS011;5274;51.992;8.518;2023-03-23T07:54:36;14.40;;;13.50;;
10452;SDS011;5274;51.992;8.518;2023-03-23T07:57:02;13.10;;;12.40;;
10452;SDS011;5274;51.992;8.518;2023-03-23T07:59:28;15.02;;;14.18;;
10452;SDS011;5274;51.992;8.518;2023-03-23T08:01:54;12.20;;;11.50;;
10452;SDS011;5274;51.992;8.518;2023-03-23T08:04:20;13.13;;;12.32;;
10452;SDS011;5274;51.992;8.518;2023-03-23T08:06:45;15.43;;;14.27;;
10452;SDS011;5274;51.992;8.518;2023-03-23T08:09:12;15.95;;;15.10;;
10452;SDS011;5274;51.992;8.518;2023-03-23T08:11:38;14.40;;;13.50;;
10452;SDS011;5274;51.992;8.518;2023-03-23T08:14:04;17.17;;;16.27;;
10452;SDS011;5274;51.992;8.518;2023-03-23T08:16:30;18.30;;;17.23;;
10452;SDS011;5274;51.992;8.518;2023-03-23T08:18:56;17.80;;;16.75;;
10452;SDS011;5274;51.992;8.518;2023-03-23T08:21:22;18.90;;;17.88;;
10452;SDS011;5274;51.992;8.518;2023-03-23T08:23:48;19.05;;;17.88;;
10452;SDS011;5274;51.992;8.518;2023-03-23T08:26:14;19.08;;;18.08;;
10452;SDS011;5274;51.992;8.518;2023-03-23T08:28:42;19.25;;;18.20;;
10452;SDS011;5274;51.992;8.518;2023-03-23T08:31:10;21.45;;;19.90;;
10452;SDS011;5274;51.992;8.518;2023-03-23T08:33:36;21.92;;;20.77;;
10452;SDS011;5274;51.992;8.518;2023-03-23T08:36:03;23.05;;;21.63;;
10452;SDS011;5274;51.992;8.518;2023-03-23T08:38:29;21.67;;;20.50;;
10452;SDS011;5274;51.992;8.518;2023-03-23T08:40:59;23.77;;;22.48;;
10452;SDS011;5274;51.992;8.518;2023-03-23T08:43:27;24.55;;;22.77;;
10452;SDS011;5274;51.992;8.518;2023-03-23T08:45:53;25.60;;;24.20;;
10452;SDS011;5274;51.992;8.518;2023-03-23T08:48:20;25.98;;;24.58;;
10452;SDS011;5274;51.992;8.518;2023-03-23T08:50:46;25.35;;;23.52;;
10452;SDS011;5274;51.992;8.518;2023-03-23T08:53:12;27.60;;;25.45;;
10452;SDS011;5274;51.992;8.518;2023-03-23T08:55:38;26.67;;;24.98;;
10452;SDS011;5274;51.992;8.518;2023-03-23T08:58:04;27.40;;;25.63;;
10452;SDS011;5274;51.992;8.518;2023-03-23T09:00:30;25.83;;;24.33;;
10452;SDS011;5274;51.992;8.518;2023-03-23T09:02:57;25.65;;;24.10;;
10452;SDS011;5274;51.992;8.518;2023-03-23T09:05:24;27.35;;;25.95;;
10452;SDS011;5274;51.992;8.518;2023-03-23T09:07:51;27.73;;;25.98;;
10452;SDS011;5274;51.992;8.518;2023-03-23T09:10:18;28.20;;;26.70;;
10452;SDS011;5274;51.992;8.518;2023-03-23T09:12:45;31.17;;;29.17;;
10452;SDS011;5274;51.992;8.518;2023-03-23T09:15:12;30.85;;;29.20;;
10452;SDS011;5274;51.992;8.518;2023-03-23T09:17:39;33.03;;;30.90;;
10452;SDS011;5274;51.992;8.518;2023-03-23T09:20:06;32.15;;;30.25;;
10452;SDS011;5274;51.992;8.518;2023-03-23T09:22:36;31.67;;;29.88;;
10452;SDS011;5274;51.992;8.518;2023-03-23T09:25:02;31.58;;;29.45;;
10452;SDS011;5274;51.992;8.518;2023-03-23T09:27:28;32.50;;;30.45;;
10452;SDS011;5274;51.992;8.518;2023-03-23T09:29:54;35.45;;;33.13;;
10452;SDS011;5274;51.992;8.518;2023-03-23T09:32:20;35.05;;;32.85;;
10452;SDS011;5274;51.992;8.518;2023-03-23T09:34:47;36.30;;;34.20;;
10452;SDS011;5274;51.992;8.518;2023-03-23T09:37:13;35.05;;;32.85;;
10452;SDS011;5274;51.992;8.518;2023-03-23T09:39:39;34.53;;;32.42;;
10452;SDS011;5274;51.992;8.518;2023-03-23T09:42:16;32.92;;;30.90;;
10452;SDS011;5274;51.992;8.518;2023-03-23T09:44:51;35.35;;;33.20;;
10452;SDS011;5274;51.992;8.518;2023-03-23T09:52:16;38.05;;;35.58;;
10452;SDS011;5274;51.992;8.518;2023-03-23T09:54:43;38.13;;;35.83;;
10452;SDS011;5274;51.992;8.518;2023-03-23T09:57:25;38.17;;;35.60;;
10452;SDS011;5274;51.992;8.518;2023-03-23T10:02:26;37.40;;;34.92;;
10452;SDS011;5274;51.992;8.518;2023-03-23T10:04:54;38.08;;;35.78;;
10452;SDS011;5274;51.992;8.518;2023-03-23T10:07:26;39.05;;;36.45;;
10452;SDS011;5274;51.992;8.518;2023-03-23T10:09:53;39.72;;;37.33;;
10452;SDS011;5274;51.992;8.518;2023-03-23T10:12:37;39.35;;;36.80;;
10452;SDS011;5274;51.992;8.518;2023-03-23T10:18:02;43.17;;;40.28;;
10452;SDS011;5274;51.992;8.518;2023-03-23T10:20:33;42.13;;;39.50;;
10452;SDS011;5274;51.992;8.518;2023-03-23T10:25:28;46.42;;;43.03;;
10452;SDS011;5274;51.992;8.518;2023-03-23T10:28:00;47.53;;;44.08;;
10452;SDS011;5274;51.992;8.518;2023-03-23T10:31:11;46.80;;;43.40;;
10452;SDS011;5274;51.992;8.518;2023-03-23T10:33:52;46.90;;;43.55;;
10452;SDS011;5274;51.992;8.518;2023-03-23T10:38:40;45.03;;;42.03;;
10452;SDS011;5274;51.992;8.518;2023-03-23T10:41:11;47.30;;;44.00;;
10452;SDS011;5274;51.992;8.518;2023-03-23T10:43:38;46.22;;;43.00;;
10452;SDS011;5274;51.992;8.518;2023-03-23T10:46:15;47.80;;;44.55;;
10452;SDS011;5274;51.992;8.518;2023-03-23T10:48:43;48.90;;;45.40;;
10452;SDS011;5274;51.992;8.518;2023-03-23T10:51:10;45.97;;;42.90;;
10452;SDS011;5274;51.992;8.518;2023-03-23T10:53:38;47.33;;;44.10;;
10452;SDS011;5274;51.992;8.518;2023-03-23T10:56:05;46.50;;;43.30;;
10452;SDS011;5274;51.992;8.518;2023-03-23T10:58:32;44.88;;;41.75;;
10452;SDS011;5274;51.992;8.518;2023-03-23T11:00:59;40.88;;;38.47;;
10452;SDS011;5274;51.992;8.518;2023-03-23T11:06:10;25.60;;;24.30;;
10452;SDS011;5274;51.992;8.518;2023-03-23T11:08:58;20.45;;;19.25;;
10452;SDS011;5274;51.992;8.518;2023-03-23T11:11:27;15.43;;;14.63;;
10452;SDS011;5274;51.992;8.518;2023-03-23T11:14:02;15.38;;;14.68;;
10452;SDS011;5274;51.992;8.518;2023-03-23T11:18:54;16.85;;;15.90;;
10452;SDS011;5274;51.992;8.518;2023-03-23T11:21:21;13.95;;;13.27;;
10452;SDS011;5274;51.992;8.518;2023-03-23T11:23:51;12.95;;;12.35;;
10452;SDS011;5274;51.992;8.518;2023-03-23T11:26:25;11.52;;;11.02;;
10452;SDS011;5274;51.992;8.518;2023-03-23T11:31:21;11.20;;;10.60;;
10452;SDS011;5274;51.992;8.518;2023-03-23T11:33:52;11.65;;;10.73;;
10452;SDS011;5274;51.992;8.518;2023-03-23T11:36:19;12.00;;;11.23;;
10452;SDS011;5274;51.992;8.518;2023-03-23T11:38:48;11.27;;;10.65;;
10452;SDS011;5274;51.992;8.518;2023-03-23T11:41:18;12.05;;;11.15;;
10452;SDS011;5274;51.992;8.518;2023-03-23T11:43:45;16.02;;;14.90;;
10452;SDS011;5274;51.992;8.518;2023-03-23T11:46:18;14.07;;;13.25;;
10452;SDS011;5274;51.992;8.518;2023-03-23T11:48:52;13.68;;;13.07;;
10452;SDS011;5274;51.992;8.518;2023-03-23T11:56:37;15.90;;;15.20;;
10452;SDS011;5274;51.992;8.518;2023-03-23T11:59:09;15.73;;;14.90;;
10452;SDS011;5274;51.992;8.518;2023-03-23T12:06:50;20.52;;;19.10;;
10452;SDS011;5274;51.992;8.518;2023-03-23T12:09:22;17.92;;;16.80;;
10452;SDS011;5274;51.992;8.518;2023-03-23T12:12:15;23.17;;;21.63;;
10452;SDS011;5274;51.992;8.518;2023-03-23T12:14:50;22.13;;;20.73;;
10452;SDS011;5274;51.992;8.518;2023-03-23T12:17:20;26.30;;;24.90;;
10452;SDS011;5274;51.992;8.518;2023-03-23T12:20:08;20.30;;;18.90;;
10452;SDS011;5274;51.992;8.518;2023-03-23T12:38:14;18.48;;;17.48;;
10452;SDS011;5274;51.992;8.518;2023-03-23T12:45:58;16.33;;;14.98;;
10452;SDS011;5274;51.992;8.518;2023-03-23T12:48:39;11.50;;;10.80;;
10452;SDS011;5274;51.992;8.518;2023-03-23T12:51:14;11.38;;;10.75;;
10452;SDS011;5274;51.992;8.518;2023-03-23T12:53:57;11.07;;;10.38;;
10452;SDS011;5274;51.992;8.518;2023-03-23T12:56:26;11.57;;;10.82;;
10452;SDS011;5274;51.992;8.518;2023-03-23T12:59:36;10.20;;;9.57;;
10452;SDS011;5274;51.992;8.518;2023-03-23T13:01:43;11.48;;;10.77;;
10452;SDS011;5274;51.992;8.518;2023-03-23T13:04:14;9.80;;;9.30;;
10452;SDS011;5274;51.992;8.518;2023-03-23T13:06:42;10.95;;;10.23;;
10452;SDS011;5274;51.992;8.518;2023-03-23T13:11:56;9.52;;;8.93;;
10452;SDS011;5274;51.992;8.518;2023-03-23T13:14:45;8.52;;;7.95;;
10452;SDS011;5274;51.992;8.518;2023-03-23T13:22:32;7.90;;;7.50;;
10452;SDS011;5274;51.992;8.518;2023-03-23T13:25:01;8.00;;;7.38;;
10452;SDS011;5274;51.992;8.518;2023-03-23T13:27:28;7.93;;;7.35;;
10452;SDS011;5274;51.992;8.518;2023-03-23T13:29:55;8.13;;;7.57;;
10452;SDS011;5274;51.992;8.518;2023-03-23T13:32:27;8.73;;;8.20;;
10452;SDS011;5274;51.992;8.518;2023-03-23T13:34:55;8.73;;;8.13;;
10452;SDS011;5274;51.992;8.518;2023-03-23T13:37:22;10.63;;;9.93;;
10452;SDS011;5274;51.992;8.518;2023-03-23T13:39:53;9.70;;;9.02;;
10452;SDS011;5274;51.992;8.518;2023-03-23T13:42:30;11.00;;;10.18;;
10452;SDS011;5274;51.992;8.518;2023-03-23T13:47:36;10.38;;;9.50;;
10452;SDS011;5274;51.992;8.518;2023-03-23T13:50:08;9.65;;;8.80;;
10452;SDS011;5274;51.992;8.518;2023-03-23T14:03:18;8.20;;;7.60;;
10452;SDS011;5274;51.992;8.518;2023-03-23T14:05:59;9.25;;;8.52;;
10452;SDS011;5274;51.992;8.518;2023-03-23T14:11:09;10.20;;;9.20;;
10452;SDS011;5274;51.992;8.518;2023-03-23T14:16:04;9.75;;;9.00;;
10452;SDS011;5274;51.992;8.518;2023-03-23T14:18:34;8.23;;;7.63;;
10452;SDS011;5274;51.992;8.518;2023-03-23T14:21:01;9.80;;;9.15;;
10452;SDS011;5274;51.992;8.518;2023-03-23T14:23:27;10.00;;;9.20;;
10452;SDS011;5274;51.992;8.518;2023-03-23T14:26:00;10.93;;;10.15;;
10452;SDS011;5274;51.992;8.518;2023-03-23T14:28:37;9.20;;;8.50;;
10452;SDS011;5274;51.992;8.518;2023-03-23T14:31:04;10.18;;;9.43;;
10452;SDS011;5274;51.992;8.518;2023-03-23T14:33:30;8.30;;;7.60;;
10452;SDS011;5274;51.992;8.518;2023-03-23T14:35:57;7.82;;;7.22;;
10452;SDS011;5274;51.992;8.518;2023-03-23T14:38:24;9.48;;;8.77;;
10452;SDS011;5274;51.992;8.518;2023-03-23T14:40:59;9.18;;;8.43;;
10452;SDS011;5274;51.992;8.518;2023-03-23T14:43:25;10.20;;;9.30;;
10452;SDS011;5274;51.992;8.518;2023-03-23T14:45:52;11.20;;;10.30;;
10452;SDS011;5274;51.992;8.518;2023-03-23T14:48:19;11.35;;;10.35;;
10452;SDS011;5274;51.992;8.518;2023-03-23T14:50:55;10.55;;;9.63;;
10452;SDS011;5274;51.992;8.518;2023-03-23T14:53:22;11.13;;;10.10;;
10452;SDS011;5274;51.992;8.518;2023-03-23T14:55:49;14.02;;;12.85;;
10452;SDS011;5274;51.992;8.518;2023-03-23T14:58:16;17.65;;;16.45;;
10452;SDS011;5274;51.992;8.518;2023-03-23T15:00:47;19.48;;;18.35;;
10452;SDS011;5274;51.992;8.518;2023-03-23T15:03:15;30.15;;;28.23;;
10452;SDS011;5274;51.992;8.518;2023-03-23T15:05:43;26.25;;;24.55;;
10452;SDS011;5274;51.992;8.518;2023-03-23T15:08:12;22.42;;;21.13;;
10452;SDS011;5274;51.992;8.518;2023-03-23T15:10:39;21.30;;;20.00;;
10452;SDS011;5274;51.992;8.518;2023-03-23T15:13:08;23.63;;;22.23;;
10452;SDS011;5274;51.992;8.518;2023-03-23T15:15:35;24.92;;;23.42;;
10452;SDS011;5274;51.992;8.518;2023-03-23T15:18:02;23.02;;;21.52;;
10452;SDS011;5274;51.992;8.518;2023-03-23T15:20:30;19.83;;;18.30;;
10452;SDS011;5274;51.992;8.518;2023-03-23T15:23:04;16.15;;;15.15;;
10452;SDS011;5274;51.992;8.518;2023-03-23T15:25:31;17.80;;;16.40;;
10452;SDS011;5274;51.992;8.518;2023-03-23T15:28:06;16.40;;;15.30;;
10452;SDS011;5274;51.992;8.518;2023-03-23T15:30:33;15.35;;;14.38;;
10452;SDS011;5274;51.992;8.518;2023-03-23T15:33:17;16.42;;;15.32;;
10452;SDS011;5274;51.992;8.518;2023-03-23T15:35:48;16.83;;;15.82;;
10452;SDS011;5274;51.992;8.518;2023-03-23T15:38:20;16.00;;;14.80;;
10452;SDS011;5274;51.992;8.518;2023-03-23T15:40:51;14.45;;;13.55;;
10452;SDS011;5274;51.992;8.518;2023-03-23T15:43:21;17.98;;;16.50;;
10452;SDS011;5274;51.992;8.518;2023-03-23T15:45:59;14.13;;;13.10;;
10452;SDS011;5274;51.992;8.518;2023-03-23T15:48:29;16.65;;;15.55;;
10452;SDS011;5274;51.992;8.518;2023-03-23T15:50:55;16.13;;;14.88;;
10452;SDS011;5274;51.992;8.518;2023-03-23T15:53:32;14.68;;;13.55;;
10452;SDS011;5274;51.992;8.518;2023-03-23T15:56:02;13.88;;;12.82;;
10452;SDS011;5274;51.992;8.518;2023-03-23T15:58:29;16.10;;;14.98;;
10452;SDS011;5274;51.992;8.518;2023-03-23T16:00:55;14.82;;;13.80;;
10452;SDS011;5274;51.992;8.518;2023-03-23T16:03:23;15.32;;;14.23;;
10452;SDS011;5274;51.992;8.518;2023-03-23T16:05:51;14.52;;;13.45;;
10452;SDS011;5274;51.992;8.518;2023-03-23T16:08:17;15.90;;;14.73;;
10452;SDS011;5274;51.992;8.518;2023-03-23T16:10:43;16.40;;;15.40;;
10452;SDS011;5274;51.992;8.518;2023-03-23T16:13:09;16.60;;;15.40;;
10452;SDS011;5274;51.992;8.518;2023-03-23T16:15:35;16.70;;;15.65;;
10452;SDS011;5274;51.992;8.518;2023-03-23T16:18:01;12.55;;;11.55;;
10452;SDS011;5274;51.992;8.518;2023-03-23T16:20:27;18.00;;;16.88;;
10452;SDS011;5274;51.992;8.518;2023-03-23T16:22:54;21.85;;;20.55;;
10452;SDS011;5274;51.992;8.518;2023-03-23T16:25:20;26.45;;;24.75;;
10452;SDS011;5274;51.992;8.518;2023-03-23T16:27:46;23.70;;;22.20;;
10452;SDS011;5274;51.992;8.518;2023-03-23T16:30:22;19.08;;;17.88;;